Time;durP1;ratioP1;P1;durP2;ratioP2;P2;SDS_P1;SDS_P2;PMS_P1;PMS_P2;Temp;Humidity;BMP_temperature;BMP_pressure;BME280_temperature;BME280_humidity;BME280_pressure;Samples;Min_cycle;Max_cycle;Signal;HPM_P1;HPM_P2
2022/09/18 00:01:15;;;;;;;4.07;1.02;;;;;;;13.13;67.32;97310.44;4487781;31;20097;-82
2022/09/18 00:03:42;;;;;;;3.70;1.05;;;;;;;13.35;65.66;97312.50;4487908;31;20431;-82
2022/09/18 00:06:12;;;;;;;6.80;1.52;;;;;;;13.21;66.31;97310.81;4487557;31;20133;-82
2022/09/18 00:08:42;;;;;;;3.15;1.17;;;;;;;12.89;67.21;97315.44;4487890;31;20145;-82
2022/09/18 00:11:11;;;;;;;2.72;1.02;;;;;;;12.20;69.47;97311.94;4486614;32;20112;-81
2022/09/18 00:13:40;;;;;;;4.47;1.20;;;;;;;13.36;65.25;97319.34;4487636;31;20088;-81
2022/09/18 00:16:08;;;;;;;2.55;1.00;;;;;;;13.07;65.34;97334.13;4486688;32;20088;-81
2022/09/18 00:18:35;;;;;;;2.33;1.15;;;;;;;13.20;64.80;97333.31;4487439;31;20103;-81
2022/09/18 00:21:10;;;;;;;4.43;1.10;;;;;;;12.72;66.49;97314.72;4486322;32;20097;-82
2022/09/18 00:23:38;;;;;;;3.00;1.30;;;;;;;12.71;65.90;97326.00;4487761;31;20148;-81
2022/09/18 00:26:06;;;;;;;3.00;0.95;;;;;;;12.80;65.77;97331.56;4487598;31;20148;-81
2022/09/18 00:28:33;;;;;;;3.05;1.30;;;;;;;12.89;65.60;97339.56;4487603;31;20173;-81
2022/09/18 00:31:09;;;;;;;1.73;0.98;;;;;;;13.16;64.30;97347.31;4487567;31;20096;-82
2022/09/18 00:33:38;;;;;;;3.33;1.58;;;;;;;12.83;65.57;97342.53;4487714;31;20084;-81
2022/09/18 00:36:07;;;;;;;3.53;1.00;;;;;;;13.09;63.95;97340.91;4487552;32;20094;-81
2022/09/18 00:38:35;;;;;;;8.32;1.55;;;;;;;12.80;64.47;97344.50;4486470;32;20108;-82
2022/09/18 00:41:04;;;;;;;4.65;1.58;;;;;;;13.24;62.69;97345.12;4487384;31;20435;-81
2022/09/18 00:43:33;;;;;;;2.92;1.20;;;;;;;13.55;62.11;97345.72;4487264;31;20089;-81
2022/09/18 00:46:04;;;;;;;2.90;1.27;;;;;;;12.79;64.58;97348.84;4487387;31;20141;-81
2022/09/18 00:48:56;;;;;;;2.97;1.20;;;;;;;12.80;64.34;97342.72;4486277;32;20116;-81
2022/09/18 00:51:24;;;;;;;3.92;1.10;;;;;;;12.67;65.20;97350.44;4487538;31;20436;-81
2022/09/18 00:54:11;;;;;;;5.62;1.40;;;;;;;12.95;64.18;97351.28;4486187;32;20439;-81
2022/09/18 00:56:38;;;;;;;2.63;1.00;;;;;;;13.23;62.73;97355.56;4487348;31;20084;-81
2022/09/18 00:59:06;;;;;;;1.92;0.90;;;;;;;13.72;61.10;97348.03;4487432;31;20172;-81
2022/09/18 01:01:33;;;;;;;2.25;1.05;;;;;;;13.73;60.99;97352.28;4486047;32;20123;-81
2022/09/18 01:04:00;;;;;;;2.42;1.10;;;;;;;13.96;60.44;97353.34;4486092;32;20080;-81
2022/09/18 01:06:35;;;;;;;3.15;1.10;;;;;;;13.66;60.74;97350.19;4487376;31;20080;-81
2022/09/18 01:09:11;;;;;;;3.00;0.82;;;;;;;13.57;61.47;97361.97;4486049;32;20149;-82
2022/09/18 01:12:29;;;;;;;7.37;2.15;;;;;;;13.78;60.49;97354.56;4486377;32;20420;-81
2022/09/18 01:15:03;;;;;;;4.82;1.08;;;;;;;13.35;61.94;97356.53;4484972;32;20374;-81
2022/09/18 01:17:40;;;;;;;3.25;1.08;;;;;;;13.60;61.04;97351.41;4486054;32;20089;-81
2022/09/18 01:20:33;;;;;;;6.20;1.10;;;;;;;12.79;63.21;97350.59;4487305;31;20165;-81
2022/09/18 01:23:18;;;;;;;4.28;1.15;;;;;;;13.11;62.86;97351.16;4487153;31;20096;-81
2022/09/18 01:25:56;;;;;;;5.68;1.20;;;;;;;13.23;62.31;97361.59;4487079;31;20435;-81
2022/09/18 01:28:33;;;;;;;3.65;1.17;;;;;;;12.49;64.36;97358.50;4485963;32;20107;-81
2022/09/18 01:31:05;;;;;;;3.00;1.15;;;;;;;12.89;62.77;97354.28;4471971;32;20100;-81
2022/09/18 01:33:51;;;;;;;3.65;1.02;;;;;;;12.23;65.05;97353.16;4473055;32;20126;-82
2022/09/18 01:36:20;;;;;;;2.22;0.90;;;;;;;12.49;64.87;97350.75;4487059;31;20746;-81
2022/09/18 01:38:51;;;;;;;1.80;0.98;;;;;;;12.57;64.11;97359.69;4485867;32;20084;-81
2022/09/18 01:41:23;;;;;;;3.15;0.90;;;;;;;12.09;65.78;97366.91;4485883;32;20108;-81
2022/09/18 01:43:59;;;;;;;3.70;0.93;;;;;;;12.04;66.10;97366.34;4486583;31;20096;-81
2022/09/18 01:46:26;;;;;;;3.25;1.00;;;;;;;12.22;65.68;97376.50;4485767;32;20093;-81
2022/09/18 01:49:00;;;;;;;2.87;1.00;;;;;;;12.51;64.68;97373.00;4472800;32;20076;-81
2022/09/18 01:51:35;;;;;;;1.55;0.80;;;;;;;12.46;64.50;97385.41;4485692;32;20153;-81
2022/09/18 01:54:08;;;;;;;1.87;1.00;;;;;;;12.38;65.30;97391.03;4486812;31;21861;-81
2022/09/18 01:56:48;;;;;;;2.00;0.93;;;;;;;12.57;64.96;97387.34;4472777;32;20145;-81
2022/09/18 01:59:20;;;;;;;2.95;0.90;;;;;;;12.28;65.86;97386.50;4485633;32;20434;-81
2022/09/18 02:01:48;;;;;;;1.15;0.90;;;;;;;12.50;65.13;97401.56;4486688;31;20096;-81
2022/09/18 02:04:22;;;;;;;4.40;1.10;;;;;;;13.34;62.15;97398.94;4486499;32;20093;-81
2022/09/18 02:06:58;;;;;;;1.58;0.90;;;;;;;13.24;62.40;97393.50;4485480;32;20092;-82
2022/09/18 02:09:26;;;;;;;1.58;0.98;;;;;;;12.65;64.17;97400.63;4485411;32;20107;-81
2022/09/18 02:11:54;;;;;;;2.67;0.90;;;;;;;12.88;63.89;97401.81;4485346;32;20096;-81
2022/09/18 02:14:27;;;;;;;2.53;0.90;;;;;;;12.74;64.45;97413.00;4485202;32;20459;-81
2022/09/18 02:16:58;;;;;;;3.08;1.10;;;;;;;12.63;64.91;97415.41;4486551;31;20099;-81
2022/09/18 02:19:33;;;;;;;2.65;1.10;;;;;;;12.55;65.26;97415.06;4486358;31;20418;-81
2022/09/18 02:22:03;;;;;;;2.55;0.90;;;;;;;12.39;66.00;97412.56;4485356;32;20100;-81
2022/09/18 02:24:33;;;;;;;1.40;0.80;;;;;;;12.47;65.78;97412.09;4486361;31;20149;-81
2022/09/18 02:27:00;;;;;;;1.60;0.90;;;;;;;12.23;66.75;97423.00;4486299;31;20092;-82
2022/09/18 02:29:28;;;;;;;1.98;0.90;;;;;;;12.29;66.35;97414.84;4485013;32;20085;-82
2022/09/18 02:31:55;;;;;;;1.80;1.00;;;;;;;12.04;67.58;97410.31;4485055;32;20160;-81
2022/09/18 02:34:22;;;;;;;1.55;1.00;;;;;;;12.09;67.67;97416.03;4486010;31;20442;-81
2022/09/18 02:36:57;;;;;;;1.37;0.93;;;;;;;12.37;66.86;97423.00;4486297;31;20088;-81
2022/09/18 02:39:24;;;;;;;1.27;0.98;;;;;;;12.18;66.99;97419.84;4486030;31;20150;-82
2022/09/18 02:42:10;;;;;;;;;;;;;;;12.12;67.14;97409.84;4487898;31;20164;-81
2022/09/18 02:45:05;;;;;;;1.92;0.98;;;;;;;12.46;66.17;97416.44;4487058;32;19991;-81
2022/09/18 02:47:59;;;;;;;2.42;0.90;;;;;;;12.43;65.51;97417.44;4488343;32;20088;-81
2022/09/18 02:50:57;;;;;;;2.37;0.90;;;;;;;12.68;64.44;97419.41;4488343;32;20411;-82
2022/09/18 02:53:28;;;;;;;1.23;1.00;;;;;;;12.41;64.73;97423.63;4488180;31;20108;-81
2022/09/18 02:56:01;;;;;;;2.47;0.80;;;;;;;12.50;64.78;97425.69;4486949;32;20157;-81
2022/09/18 02:58:35;;;;;;;1.40;0.90;;;;;;;12.55;64.67;97425.41;4487172;32;20110;-81
2022/09/18 03:01:03;;;;;;;2.47;1.00;;;;;;;13.00;62.88;97432.13;4488169;31;20111;-81
2022/09/18 03:03:32;;;;;;;2.97;0.90;;;;;;;13.14;61.69;97432.06;4474098;32;20446;-81
2022/09/18 03:06:01;;;;;;;1.98;1.20;;;;;;;13.13;61.96;97437.34;4473966;32;20161;-81
2022/09/18 03:08:28;;;;;;;1.98;0.90;;;;;;;12.63;63.61;97447.28;4488218;31;20085;-82
2022/09/18 03:10:55;;;;;;;1.73;0.90;;;;;;;12.71;63.61;97439.06;4488130;31;20068;-81
2022/09/18 03:13:22;;;;;;;1.67;0.98;;;;;;;12.73;62.98;97439.81;4488143;31;20089;-81
2022/09/18 03:15:49;;;;;;;1.92;0.90;;;;;;;12.65;63.08;97434.25;4488070;31;20100;-81
2022/09/18 03:18:16;;;;;;;2.87;0.80;;;;;;;12.95;62.24;97440.16;4487026;32;20156;-81
2022/09/18 03:20:43;;;;;;;4.40;0.90;;;;;;;12.96;62.58;97440.97;4486852;32;20557;-81
2022/09/18 03:23:10;;;;;;;1.23;0.93;;;;;;;12.46;63.32;97434.56;4486977;32;20123;-81
2022/09/18 03:25:37;;;;;;;;;;;;;;;12.75;63.09;97446.53;4488348;31;20426;-81
2022/09/18 03:28:04;;;;;;;3.42;0.90;;;;;;;12.83;62.47;97445.25;4488080;32;19976;-81
2022/09/18 03:30:31;;;;;;;2.33;0.90;;;;;;;12.53;63.16;97443.59;4487863;31;20072;-81
2022/09/18 03:32:58;;;;;;;2.92;0.90;;;;;;;12.68;62.71;97447.87;4487997;31;20093;-81
2022/09/18 03:35:25;;;;;;;2.40;1.10;;;;;;;12.73;62.61;97460.50;4487938;31;20097;-81
2022/09/18 03:37:52;;;;;;;3.03;1.08;;;;;;;12.92;61.61;97444.69;4487963;31;20131;-81
2022/09/18 03:40:19;;;;;;;2.62;1.08;;;;;;;12.39;62.99;97439.25;4487942;31;20075;-81
2022/09/18 03:42:47;;;;;;;2.62;1.10;;;;;;;12.37;63.21;97448.03;4487597;31;20120;-81
2022/09/18 03:45:14;;;;;;;3.92;1.08;;;;;;;12.70;62.46;97447.75;4486675;32;20100;-81
2022/09/18 03:47:41;;;;;;;1.60;0.98;;;;;;;13.12;61.02;97457.25;4488050;31;20147;-81
2022/09/18 03:50:10;;;;;;;1.12;0.90;;;;;;;12.85;62.05;97474.47;4486530;32;20084;-81
2022/09/18 03:52:37;;;;;;;1.25;0.80;;;;;;;13.10;61.35;97473.81;4487267;31;20093;-81
2022/09/18 03:55:04;;;;;;;2.10;0.90;;;;;;;13.40;60.30;97481.44;4487748;31;20088;-81
2022/09/18 03:57:31;;;;;;;2.20;0.90;;;;;;;13.01;60.96;97481.22;4487928;31;20081;-82
2022/09/18 03:59:58;;;;;;;2.42;1.02;;;;;;;13.29;59.67;97482.12;4473686;32;20470;-81
2022/09/18 04:02:25;;;;;;;2.53;1.10;;;;;;;13.48;58.92;97485.22;4486706;32;20100;-81
2022/09/18 04:04:52;;;;;;;2.28;1.00;;;;;;;13.36;59.24;97495.53;4487643;31;20127;-81
2022/09/18 04:07:19;;;;;;;3.85;1.10;;;;;;;13.10;59.78;97494.53;4487732;31;20103;-81
2022/09/18 04:09:46;;;;;;;2.15;0.90;;;;;;;13.16;59.17;97478.59;4486594;32;20077;-82
2022/09/18 04:12:13;;;;;;;2.70;1.17;;;;;;;13.20;59.51;97483.53;4487696;31;20088;-82
2022/09/18 04:14:40;;;;;;;3.00;0.90;;;;;;;13.18;59.89;97487.94;4486500;32;20173;-81
2022/09/18 04:17:07;;;;;;;3.12;1.05;;;;;;;13.60;58.60;97494.81;4487837;31;20148;-81
2022/09/18 04:19:34;;;;;;;3.00;1.00;;;;;;;13.91;57.45;97487.66;4487550;31;20088;-81
2022/09/18 04:22:02;;;;;;;1.30;0.82;;;;;;;14.07;56.88;97485.72;4487639;31;20101;-82
2022/09/18 04:24:29;;;;;;;1.85;0.90;;;;;;;14.42;55.03;97491.16;4487623;31;20165;-82
2022/09/18 04:26:56;;;;;;;1.50;1.00;;;;;;;14.84;54.38;97496.19;4486328;32;20088;-81
2022/09/18 04:29:23;;;;;;;3.33;1.20;;;;;;;14.66;54.08;97496.50;4487500;31;20080;-81
2022/09/18 04:31:50;;;;;;;1.37;0.80;;;;;;;14.95;53.31;97502.31;4487560;31;20141;-81
2022/09/18 04:34:17;;;;;;;1.60;0.95;;;;;;;14.29;54.99;97502.47;4487458;31;20184;-81
2022/09/18 04:36:44;;;;;;;2.90;0.88;;;;;;;14.24;55.17;97512.31;4487681;31;20080;-81
2022/09/18 04:39:11;;;;;;;2.20;0.70;;;;;;;13.61;56.69;97500.84;4486232;32;20076;-81
2022/09/18 04:41:38;;;;;;;2.12;1.00;;;;;;;13.27;58.62;97512.47;4486386;32;20101;-81
2022/09/18 04:44:06;;;;;;;2.00;0.88;;;;;;;12.89;60.67;97507.03;4487291;31;20112;-81
2022/09/18 04:46:33;;;;;;;2.17;1.00;;;;;;;12.74;61.26;97504.41;4487551;31;20098;-81
2022/09/18 04:49:00;;;;;;;1.23;0.90;;;;;;;12.50;62.83;97513.66;4487463;31;20080;-81
2022/09/18 04:51:27;;;;;;;2.75;1.10;;;;;;;12.89;61.19;97504.44;4487426;31;20160;-81
2022/09/18 04:53:53;;;;;;;;;;;;;;;12.94;61.20;97518.75;4487562;31;20096;-81
2022/09/18 04:56:20;;;;;;;1.90;0.70;;;;;;;12.87;61.21;97520.06;4487454;32;20401;-81
2022/09/18 04:58:47;;;;;;;1.60;0.80;;;;;;;13.49;59.37;97530.94;4487515;31;20079;-81
2022/09/18 05:01:14;;;;;;;1.25;0.88;;;;;;;13.22;59.32;97522.31;4487289;31;20096;-81
2022/09/18 05:03:41;;;;;;;2.05;1.12;;;;;;;13.16;59.66;97520.03;4487450;31;20514;-81
2022/09/18 05:06:08;;;;;;;1.58;1.00;;;;;;;13.60;58.77;97517.28;4487370;31;20423;-81
2022/09/18 05:08:36;;;;;;;;;;;;;;;13.71;58.13;97524.41;4487523;31;20385;-81
2022/09/18 05:11:03;;;;;;;3.00;0.80;;;;;;;13.91;57.39;97529.13;4487325;32;20631;-81
2022/09/18 05:13:30;;;;;;;2.25;0.80;;;;;;;13.76;57.59;97523.19;4487304;31;20156;-81
2022/09/18 05:15:57;;;;;;;2.53;0.85;;;;;;;13.70;57.73;97520.16;4487094;31;20092;-81
2022/09/18 05:18:24;;;;;;;2.33;0.70;;;;;;;14.11;56.39;97533.03;4487444;31;20140;-81
2022/09/18 05:20:52;;;;;;;1.75;0.90;;;;;;;14.60;54.79;97530.69;4487129;31;20096;-82
2022/09/18 05:23:18;;;;;;;4.18;0.90;;;;;;;14.53;55.40;97528.59;4487120;31;20088;-81
2022/09/18 05:25:45;;;;;;;1.65;0.90;;;;;;;15.07;53.39;97541.34;4487258;31;20114;-82
2022/09/18 05:28:14;;;;;;;2.67;0.85;;;;;;;15.00;53.71;97539.19;4487085;31;20503;-81
2022/09/18 05:30:41;;;;;;;0.88;0.70;;;;;;;14.81;54.37;97538.78;4487067;31;20108;-82
2022/09/18 05:33:09;;;;;;;3.17;1.00;;;;;;;15.69;52.31;97534.38;4487090;32;20119;-82
2022/09/18 05:35:36;;;;;;;1.62;0.68;;;;;;;15.56;52.60;97537.00;4485489;32;20140;-82
2022/09/18 05:38:03;;;;;;;2.30;1.00;;;;;;;15.20;52.95;97536.97;4487069;31;20076;-81
2022/09/18 05:40:34;;;;;;;1.10;0.60;;;;;;;15.76;52.13;97540.81;4486995;31;20119;-82
2022/09/18 05:43:02;;;;;;;1.50;0.80;;;;;;;15.03;53.47;97536.38;4485383;32;20084;-81
2022/09/18 05:45:29;;;;;;;2.30;0.70;;;;;;;15.19;54.11;97541.34;4486744;31;20096;-81
2022/09/18 05:48:00;;;;;;;1.77;0.70;;;;;;;15.70;52.56;97540.41;4486793;31;20129;-82
2022/09/18 05:50:28;;;;;;;2.30;0.70;;;;;;;16.01;52.17;97539.03;4486562;31;20112;-82
2022/09/18 05:53:16;;;;;;;2.33;0.73;;;;;;;16.56;50.37;97545.38;4486826;31;20096;-82
2022/09/18 05:55:43;;;;;;;0.82;0.70;;;;;;;16.70;49.59;97545.22;4486625;31;20190;-82
2022/09/18 05:58:14;;;;;;;0.93;0.52;;;;;;;17.51;48.16;97557.22;4486544;31;20084;-82
2022/09/18 06:00:43;;;;;;;3.80;0.90;;;;;;;18.16;46.38;97566.81;4485616;32;20112;-82
2022/09/18 06:03:12;;;;;;;0.70;0.70;;;;;;;17.98;47.47;97557.88;4485270;32;20100;-82
2022/09/18 06:05:40;;;;;;;0.90;0.80;;;;;;;19.24;43.88;97555.16;4486537;31;20145;-82
2022/09/18 06:08:08;;;;;;;2.22;0.80;;;;;;;19.99;42.15;97548.66;4486635;32;20073;-82
2022/09/18 06:10:38;;;;;;;2.65;0.80;;;;;;;19.87;41.94;97547.91;4486089;31;20721;-82
2022/09/18 06:13:10;;;;;;;1.02;0.60;;;;;;;19.24;43.35;97551.69;4486467;31;20105;-82
2022/09/18 06:15:37;;;;;;;3.03;0.82;;;;;;;19.11;43.48;97546.69;4486935;31;20428;-82
2022/09/18 06:18:08;;;;;;;1.85;0.68;;;;;;;18.48;44.34;97551.09;4488368;31;20145;-82
2022/09/18 06:20:35;;;;;;;3.78;0.68;;;;;;;18.53;44.99;97559.41;4488543;31;20119;-82
2022/09/18 06:23:02;;;;;;;2.62;0.57;;;;;;;18.24;44.90;97558.34;4488581;31;20494;-81
2022/09/18 06:25:29;;;;;;;1.23;0.60;;;;;;;18.05;45.51;97552.00;4487952;31;20091;-82
2022/09/18 06:27:57;;;;;;;1.50;0.60;;;;;;;17.60;45.96;97553.87;4488384;31;20072;-82
2022/09/18 06:30:26;;;;;;;1.35;0.50;;;;;;;18.35;45.23;97560.91;4488467;31;20428;-81
2022/09/18 06:32:53;;;;;;;0.62;0.45;;;;;;;18.53;44.02;97559.41;4488214;31;20096;-82
2022/09/18 06:35:20;;;;;;;1.37;0.62;;;;;;;18.01;45.35;97563.66;4488147;31;20507;-82
2022/09/18 06:37:47;;;;;;;0.50;0.50;;;;;;;17.81;45.73;97567.03;4488556;31;20080;-82
2022/09/18 06:40:14;;;;;;;1.65;0.55;;;;;;;18.08;44.77;97564.84;4488090;31;20092;-82
2022/09/18 06:42:41;;;;;;;1.12;0.60;;;;;;;18.19;44.43;97569.19;4488052;31;20446;-81
2022/09/18 06:45:11;;;;;;;1.33;0.60;;;;;;;17.13;46.45;97566.25;4488121;31;20102;-82
2022/09/18 06:47:38;;;;;;;2.55;0.60;;;;;;;17.62;45.80;97573.66;4488550;32;20076;-82
2022/09/18 06:50:06;;;;;;;4.55;1.20;;;;;;;16.99;46.62;97574.25;4488312;32;20169;-82
2022/09/18 06:52:33;;;;;;;3.47;1.20;;;;;;;17.21;47.22;97587.31;4486885;32;20588;-82
2022/09/18 06:55:00;;;;;;;1.95;1.10;;;;;;;17.27;46.83;97588.62;4488227;31;20145;-81
2022/09/18 06:57:27;;;;;;;2.12;0.90;;;;;;;17.33;46.63;97590.75;4488335;31;20077;-81
2022/09/18 06:59:54;;;;;;;1.30;0.50;;;;;;;17.98;45.37;97597.84;4487777;31;20109;-82
2022/09/18 07:02:21;;;;;;;1.55;0.70;;;;;;;17.70;45.26;97595.75;4487131;32;20164;-82
2022/09/18 07:04:48;;;;;;;0.68;0.60;;;;;;;18.27;44.73;97597.28;4488127;31;20106;-81
2022/09/18 07:07:15;;;;;;;1.00;0.50;;;;;;;18.75;43.12;97606.34;4487946;31;20137;-82
2022/09/18 07:09:42;;;;;;;2.37;0.77;;;;;;;18.99;42.52;97600.84;4488046;31;20104;-82
2022/09/18 07:12:08;;;;;;;0.75;0.50;;;;;;;18.60;43.03;97601.50;4488250;31;20084;-82
2022/09/18 07:14:35;;;;;;;1.60;0.70;;;;;;;17.88;43.92;97605.56;4487725;31;20122;-81
2022/09/18 07:17:02;;;;;;;1.00;0.60;;;;;;;17.48;44.73;97614.84;4488154;31;20076;-82
2022/09/18 07:19:29;;;;;;;1.70;0.80;;;;;;;17.42;45.21;97610.06;4488324;31;20165;-81
2022/09/18 07:21:56;;;;;;;1.08;0.68;;;;;;;17.56;44.19;97615.91;4487825;31;20096;-82
2022/09/18 07:24:23;;;;;;;1.70;0.50;;;;;;;17.33;44.73;97620.28;4487948;31;20499;-82
2022/09/18 07:26:50;;;;;;;1.65;0.55;;;;;;;17.42;44.30;97618.72;4487459;31;20076;-82
2022/09/18 07:29:17;;;;;;;0.65;0.50;;;;;;;17.58;44.68;97621.81;4487396;31;20157;-81
2022/09/18 07:31:44;;;;;;;1.58;0.50;;;;;;;18.10;45.13;97628.19;4488070;31;20119;-81
2022/09/18 07:34:11;;;;;;;1.02;0.50;;;;;;;17.80;44.03;97633.22;4487946;31;20462;-81
2022/09/18 07:36:38;;;;;;;0.60;0.60;;;;;;;17.78;44.14;97630.75;4487885;31;20544;-82
2022/09/18 07:39:05;;;;;;;1.73;0.55;;;;;;;18.17;43.04;97633.72;4488057;31;20118;-82
2022/09/18 07:41:32;;;;;;;2.47;0.65;;;;;;;18.63;42.28;97643.91;4487691;31;20100;-82
2022/09/18 07:43:59;;;;;;;2.08;0.60;;;;;;;17.55;44.21;97640.34;4486706;32;20107;-82
2022/09/18 07:46:25;;;;;;;1.15;0.52;;;;;;;18.00;43.03;97639.50;4487995;31;20144;-82
2022/09/18 07:48:53;;;;;;;2.25;0.80;;;;;;;17.51;44.87;97636.28;4487574;32;20099;-82
2022/09/18 07:51:19;;;;;;;0.37;0.37;;;;;;;18.26;43.07;97619.12;4487853;31;20115;-82
2022/09/18 07:53:52;;;;;;;0.90;0.50;;;;;;;18.24;42.32;97618.41;4487934;31;20105;-81
2022/09/18 07:56:18;;;;;;;1.42;0.60;;;;;;;18.36;42.09;97618.25;4487691;31;20144;-82
2022/09/18 07:58:45;;;;;;;0.77;0.50;;;;;;;18.91;40.82;97621.56;4487865;31;20092;-82
2022/09/18 08:01:12;;;;;;;0.30;0.30;;;;;;;18.61;41.18;97627.56;4487806;31;20161;-82
2022/09/18 08:03:39;;;;;;;0.50;0.40;;;;;;;17.73;41.69;97616.37;4487565;31;20530;-82
2022/09/18 08:06:07;;;;;;;0.65;0.55;;;;;;;17.09;42.83;97621.31;4487760;31;20110;-82
2022/09/18 08:08:37;;;;;;;0.95;0.60;;;;;;;17.27;43.78;97623.34;4487737;31;20100;-82
2022/09/18 08:11:04;;;;;;;1.23;0.60;;;;;;;17.53;43.98;97623.13;4487351;31;20153;-82
2022/09/18 08:13:31;;;;;;;1.50;0.70;;;;;;;18.01;42.57;97621.09;4487678;31;20133;-81
2022/09/18 08:15:58;;;;;;;0.47;0.30;;;;;;;18.77;42.04;97620.12;4487633;31;20495;-82
2022/09/18 08:18:25;;;;;;;0.45;0.37;;;;;;;18.69;40.96;97616.47;4487489;31;20161;-82
2022/09/18 08:20:55;;;;;;;0.43;0.40;;;;;;;18.55;41.30;97625.44;4487675;32;20092;-82
2022/09/18 08:23:22;;;;;;;0.77;0.50;;;;;;;18.72;39.99;97619.69;4486500;32;20092;-82
2022/09/18 08:25:49;;;;;;;2.70;0.40;;;;;;;19.51;38.89;97614.75;4487452;31;20072;-82
2022/09/18 08:28:16;;;;;;;1.02;0.50;;;;;;;19.05;39.08;97618.66;4486476;32;20105;-82
2022/09/18 08:30:43;;;;;;;1.30;0.50;;;;;;;18.87;39.95;97611.53;4487504;31;20202;-82
2022/09/18 08:33:10;;;;;;;1.12;0.50;;;;;;;18.46;41.01;97610.50;4487570;31;20145;-82
2022/09/18 08:35:37;;;;;;;2.42;0.75;;;;;;;18.52;40.49;97610.00;4487368;32;20084;-82
2022/09/18 08:38:05;;;;;;;1.12;0.50;;;;;;;18.26;40.75;97606.88;4487142;31;20149;-82
2022/09/18 08:40:57;;;;;;;1.17;0.50;;;;;;;17.89;41.88;97616.84;4487586;31;20148;-82
2022/09/18 08:43:24;;;;;;;1.15;0.47;;;;;;;17.55;41.16;97611.62;4487438;31;20110;-82
2022/09/18 08:46:11;;;;;;;1.62;0.50;;;;;;;17.21;42.27;97613.38;4487208;31;20084;-82
2022/09/18 08:48:45;;;;;;;1.20;0.60;;;;;;;17.64;42.03;97615.28;4486433;32;20161;-82
2022/09/18 08:51:18;;;;;;;0.68;0.50;;;;;;;18.35;41.23;97608.75;4473477;32;20092;-82
2022/09/18 08:53:49;;;;;;;1.40;0.62;;;;;;;18.56;40.71;97606.19;4487339;31;20080;-82
2022/09/18 08:56:21;;;;;;;1.27;0.40;;;;;;;18.12;42.26;97609.78;4473313;32;20103;-82
2022/09/18 08:58:55;;;;;;;2.15;0.50;;;;;;;18.00;40.04;97609.00;4486127;32;20104;-82
2022/09/18 09:01:27;;;;;;;1.17;0.47;;;;;;;17.70;40.02;97596.59;4486324;32;20100;-81
2022/09/18 09:04:03;;;;;;;3.42;0.70;;;;;;;17.66;39.38;97616.03;4487349;31;20052;-81
2022/09/18 09:06:45;;;;;;;2.05;0.52;;;;;;;18.04;38.75;97614.78;4487153;32;20084;-82
2022/09/18 09:09:24;;;;;;;3.33;1.45;;;;;;;18.30;39.73;97617.94;4487235;31;20084;-82
2022/09/18 09:12:18;;;;;;;2.20;0.70;;;;;;;17.78;39.85;97596.00;4487493;31;20105;-81
2022/09/18 09:15:14;;;;;;;0.98;0.43;;;;;;;18.30;39.10;97604.88;4487128;31;20097;-82
2022/09/18 09:18:11;;;;;;;1.70;0.68;;;;;;;18.28;38.50;97604.16;4486186;32;20079;-81
2022/09/18 09:20:51;;;;;;;3.15;0.65;;;;;;;18.01;40.13;97607.22;4485761;32;20435;-82
2022/09/18 09:23:45;;;;;;;5.43;0.70;;;;;;;18.93;38.81;97609.22;4487306;31;20101;-81
2022/09/18 09:26:22;;;;;;;1.65;0.60;;;;;;;19.44;39.47;97611.00;4487289;31;20540;-81
2022/09/18 09:28:51;;;;;;;;;;;;;;;19.75;36.94;97617.06;4487107;31;20553;-82
2022/09/18 09:31:22;;;;;;;1.17;0.62;;;;;;;19.62;37.43;97616.47;4486786;32;20557;-81
2022/09/18 09:34:13;;;;;;;1.02;0.40;;;;;;;19.60;37.43;97623.63;4486825;31;20556;-81
2022/09/18 09:36:41;;;;;;;1.00;0.60;;;;;;;18.55;38.33;97614.16;4485913;32;20103;-81
2022/09/18 09:39:17;;;;;;;4.22;0.60;;;;;;;18.38;38.05;97608.50;4487074;31;20075;-81
2022/09/18 09:41:52;;;;;;;3.07;0.70;;;;;;;17.90;38.54;97626.34;4485602;32;20144;-81
2022/09/18 09:44:24;;;;;;;3.58;0.68;;;;;;;17.60;39.86;97616.47;4486778;31;20084;-81
2022/09/18 09:47:07;;;;;;;0.50;0.35;;;;;;;18.13;39.53;97630.56;4485890;32;20088;-81
2022/09/18 09:49:59;;;;;;;1.05;0.43;;;;;;;17.93;39.96;97633.91;4485139;32;20401;-81
2022/09/18 09:52:27;;;;;;;0.52;0.52;;;;;;;18.70;40.07;97634.62;4486833;32;20096;-80
2022/09/18 09:55:00;;;;;;;0.37;0.37;;;;;;;18.71;38.88;97628.44;4486495;31;20153;-81
2022/09/18 09:57:41;;;;;;;1.02;0.55;;;;;;;19.10;39.16;97638.34;4485578;32;20092;-81
2022/09/18 10:00:19;;;;;;;1.50;0.57;;;;;;;19.25;37.96;97631.84;4486797;31;20084;-81
2022/09/18 10:03:31;;;;;;;3.00;0.52;;;;;;;19.48;38.77;97640.34;4486458;31;20097;-82
2022/09/18 10:06:30;;;;;;;1.58;0.40;;;;;;;19.36;38.71;97632.59;4486607;31;20100;-81
2022/09/18 10:09:21;;;;;;;1.85;0.50;;;;;;;19.87;38.37;97636.09;4485212;32;20211;-81
2022/09/18 10:11:55;;;;;;;1.02;0.40;;;;;;;20.66;36.44;97633.50;4486712;31;20068;-81
2022/09/18 10:14:24;;;;;;;0.70;0.50;;;;;;;20.16;38.08;97646.66;4485379;32;20126;-81
2022/09/18 10:16:53;;;;;;;2.25;0.70;;;;;;;20.20;35.63;97634.94;4486374;31;20096;-81
2022/09/18 10:19:21;;;;;;;1.35;0.45;;;;;;;20.41;35.71;97630.41;4485295;32;20102;-81
2022/09/18 10:21:53;;;;;;;1.77;0.75;;;;;;;20.61;34.77;97635.69;4485326;32;20141;-82
2022/09/18 10:24:32;;;;;;;1.00;0.60;;;;;;;20.08;36.28;97647.31;4484912;32;20108;-81
2022/09/18 10:27:02;;;;;;;2.17;0.68;;;;;;;19.58;37.68;97647.31;4486452;31;20100;-81
2022/09/18 10:29:29;;;;;;;1.60;0.50;;;;;;;19.80;38.03;97650.72;4484991;32;20461;-81
2022/09/18 10:32:01;;;;;;;0.62;0.37;;;;;;;20.23;35.24;97640.75;4486128;32;20104;-81
2022/09/18 10:34:40;;;;;;;1.73;0.40;;;;;;;19.72;36.04;97622.56;4486214;31;20146;-81
2022/09/18 10:37:30;;;;;;;0.57;0.40;;;;;;;19.61;35.77;97644.44;4484816;32;20112;-81
2022/09/18 10:39:58;;;;;;;1.23;0.57;;;;;;;19.98;36.16;97651.72;4486010;31;20157;-81
2022/09/18 10:42:31;;;;;;;2.72;0.57;;;;;;;20.02;36.34;97653.13;4484972;32;20099;-82
2022/09/18 10:45:01;;;;;;;0.40;0.35;;;;;;;20.41;35.64;97650.53;4485707;31;20153;-82
2022/09/18 10:47:31;;;;;;;1.33;0.60;;;;;;;19.97;35.59;97647.44;4484944;32;20135;-82
2022/09/18 10:50:10;;;;;;;2.10;0.40;;;;;;;19.37;36.29;97649.12;4485854;31;20084;-82
2022/09/18 10:52:52;;;;;;;0.65;0.40;;;;;;;18.76;38.67;97649.00;4485803;32;20108;-81
2022/09/18 10:55:25;;;;;;;0.73;0.50;;;;;;;19.44;37.79;97644.19;4485908;31;20381;-81
2022/09/18 10:58:12;;;;;;;1.42;0.60;;;;;;;19.71;38.07;97654.94;4485762;31;20100;-81
2022/09/18 11:00:47;;;;;;;0.62;0.47;;;;;;;20.19;36.39;97649.00;4485954;31;20084;-81
2022/09/18 11:03:37;;;;;;;1.12;0.50;;;;;;;20.34;36.48;97637.19;4486945;32;20426;-81
2022/09/18 11:06:07;;;;;;;0.90;0.60;;;;;;;20.92;36.60;97660.78;4486960;32;20092;-82
2022/09/18 11:08:41;;;;;;;0.68;0.50;;;;;;;20.65;35.99;97668.56;4488274;32;20111;-82
2022/09/18 11:11:12;;;;;;;1.33;0.47;;;;;;;19.99;36.61;97663.00;4487028;32;20476;-82
2022/09/18 11:13:51;;;;;;;3.42;0.45;;;;;;;19.32;37.24;97659.94;4486840;32;20080;-81
2022/09/18 11:16:23;;;;;;;1.30;0.40;;;;;;;20.18;35.96;97658.66;4487005;32;20123;-81
2022/09/18 11:19:05;;;;;;;0.35;0.35;;;;;;;19.32;36.39;97651.28;4474055;32;20119;-82
2022/09/18 11:21:49;;;;;;;0.40;0.35;;;;;;;19.15;37.16;97655.34;4488149;31;20087;-82
2022/09/18 11:24:22;;;;;;;1.73;0.32;;;;;;;19.04;37.36;97650.16;4473970;32;20145;-81
2022/09/18 11:26:54;;;;;;;0.40;0.32;;;;;;;18.42;40.19;97680.44;4487942;31;20100;-81
2022/09/18 11:29:31;;;;;;;0.35;0.35;;;;;;;18.24;41.62;97691.53;4488031;31;20101;-82
2022/09/18 11:32:02;;;;;;;0.90;0.40;;;;;;;18.06;44.47;97691.19;4488211;31;20128;-81
2022/09/18 11:34:36;;;;;;;1.23;0.52;;;;;;;17.96;44.44;97698.09;4487649;31;20119;-81
2022/09/18 11:37:08;;;;;;;1.80;0.40;;;;;;;17.96;45.14;97692.88;4486731;32;20092;-81
2022/09/18 11:39:39;;;;;;;0.98;0.35;;;;;;;18.35;42.88;97699.34;4486877;32;20228;-82
2022/09/18 11:42:16;;;;;;;0.47;0.40;;;;;;;18.33;41.65;97691.63;4486551;32;20413;-81
2022/09/18 11:44:43;;;;;;;0.30;0.30;;;;;;;18.55;40.81;97695.97;4487696;31;20108;-81
2022/09/18 11:47:24;;;;;;;1.25;0.35;;;;;;;18.69;38.64;97685.25;4487744;31;20492;-82
2022/09/18 11:50:05;;;;;;;0.65;0.30;;;;;;;18.75;39.16;97668.25;4487933;31;20118;-82
2022/09/18 11:52:39;;;;;;;0.40;0.32;;;;;;;19.29;38.37;97675.91;4488016;31;20152;-81
2022/09/18 11:55:25;;;;;;;0.43;0.37;;;;;;;19.42;37.63;97667.84;4487635;31;20111;-81